sensor_id;sensor_type;location;lat;lon;timestamp;P1;P2;P0
46302;PMS7003;32029;51.358;5.628;2023-11-21T00:00:14;23.67;23.33;16.67
46302;PMS7003;32029;51.358;5.628;2023-11-21T00:02:43;26.33;23.00;17.00
46302;PMS7003;32029;51.358;5.628;2023-11-21T00:05:13;25.67;22.33;15.33
46302;PMS7003;32029;51.358;5.628;2023-11-21T00:07:42;25.33;24.00;18.33
46302;PMS7003;32029;51.358;5.628;2023-11-21T00:10:10;20.00;20.00;14.00
46302;PMS7003;32029;51.358;5.628;2023-11-21T00:12:40;30.00;25.00;18.00
46302;PMS7003;32029;51.358;5.628;2023-11-21T00:15:08;26.50;26.50;16.50
46302;PMS7003;32029;51.358;5.628;2023-11-21T00:17:38;25.67;24.33;17.33
46302;PMS7003;32029;51.358;5.628;2023-11-21T00:20:05;22.00;22.00;16.00
46302;PMS7003;32029;51.358;5.628;2023-11-21T00:22:34;28.33;24.33;15.67
46302;PMS7003;32029;51.358;5.628;2023-11-21T00:25:02;23.33;23.33;17.00
46302;PMS7003;32029;51.358;5.628;2023-11-21T00:27:31;25.33;25.00;17.67
46302;PMS7003;32029;51.358;5.628;2023-11-21T00:29:58;18.00;17.00;12.00
46302;PMS7003;32029;51.358;5.628;2023-11-21T00:32:25;21.50;19.00;13.00
46302;PMS7003;32029;51.358;5.628;2023-11-21T00:34:52;25.00;23.00;15.00
46302;PMS7003;32029;51.358;5.628;2023-11-21T00:37:19;27.50;24.50;15.50
46302;PMS7003;32029;51.358;5.628;2023-11-21T00:39:46;23.33;22.00;16.67
46302;PMS7003;32029;51.358;5.628;2023-11-21T00:42:13;20.00;20.00;15.00
46302;PMS7003;32029;51.358;5.628;2023-11-21T00:44:40;17.33;16.00;9.00
46302;PMS7003;32029;51.358;5.628;2023-11-21T00:47:07;15.67;14.00;11.00
46302;PMS7003;32029;51.358;5.628;2023-11-21T00:49:35;23.67;23.67;17.00
46302;PMS7003;32029;51.358;5.628;2023-11-21T00:52:02;23.00;23.00;15.00
46302;PMS7003;32029;51.358;5.628;2023-11-21T00:54:30;26.00;24.33;17.00
46302;PMS7003;32029;51.358;5.628;2023-11-21T00:56:56;25.33;23.00;15.33
46302;PMS7003;32029;51.358;5.628;2023-11-21T00:59:24;25.00;22.33;16.33
46302;PMS7003;32029;51.358;5.628;2023-11-21T01:01:52;22.00;20.00;14.00
46302;PMS7003;32029;51.358;5.628;2023-11-21T01:04:20;23.50;19.00;14.00
46302;PMS7003;32029;51.358;5.628;2023-11-21T01:06:48;25.33;23.33;15.00
46302;PMS7003;32029;51.358;5.628;2023-11-21T01:09:16;22.33;22.33;16.00
46302;PMS7003;32029;51.358;5.628;2023-11-21T01:11:45;23.67;23.67;17.67
46302;PMS7003;32029;51.358;5.628;2023-11-21T01:14:12;24.50;22.50;15.50
46302;PMS7003;32029;51.358;5.628;2023-11-21T01:16:40;22.00;20.00;16.00
46302;PMS7003;32029;51.358;5.628;2023-11-21T01:19:07;26.00;24.67;16.33
46302;PMS7003;32029;51.358;5.628;2023-11-21T01:21:35;28.67;23.67;18.00
46302;PMS7003;32029;51.358;5.628;2023-11-21T01:24:03;25.33;24.00;15.67
46302;PMS7003;32029;51.358;5.628;2023-11-21T01:26:33;26.33;24.33;18.00
46302;PMS7003;32029;51.358;5.628;2023-11-21T01:29:01;22.33;21.00;15.00
46302;PMS7003;32029;51.358;5.628;2023-11-21T01:31:29;22.33;22.00;14.33
46302;PMS7003;32029;51.358;5.628;2023-11-21T01:33:57;22.67;22.67;16.00
46302;PMS7003;32029;51.358;5.628;2023-11-21T01:36:32;26.33;20.67;15.00
46302;PMS7003;32029;51.358;5.628;2023-11-21T01:39:00;24.67;23.00;14.00
46302;PMS7003;32029;51.358;5.628;2023-11-21T01:41:28;21.00;19.67;13.67
46302;PMS7003;32029;51.358;5.628;2023-11-21T01:43:55;25.00;24.00;17.67
46302;PMS7003;32029;51.358;5.628;2023-11-21T01:46:23;21.00;21.00;15.67
46302;PMS7003;32029;51.358;5.628;2023-11-21T01:48:51;28.33;24.00;15.67
46302;PMS7003;32029;51.358;5.628;2023-11-21T01:51:20;21.00;21.00;14.00
46302;PMS7003;32029;51.358;5.628;2023-11-21T01:53:48;23.67;23.67;16.33
46302;PMS7003;32029;51.358;5.628;2023-11-21T01:56:16;26.67;26.00;17.67
46302;PMS7003;32029;51.358;5.628;2023-11-21T01:58:42;7.67;7.67;7.33
46302;PMS7003;32029;51.358;5.628;2023-11-21T02:01:11;33.33;29.00;19.00
46302;PMS7003;32029;51.358;5.628;2023-11-21T02:03:38;24.33;22.00;14.33
46302;PMS7003;32029;51.358;5.628;2023-11-21T02:06:08;28.33;23.33;17.00
46302;PMS7003;32029;51.358;5.628;2023-11-21T02:08:35;29.33;22.67;16.00
46302;PMS7003;32029;51.358;5.628;2023-11-21T02:11:05;24.67;22.33;18.00
46302;PMS7003;32029;51.358;5.628;2023-11-21T02:13:32;29.00;24.67;17.67
46302;PMS7003;32029;51.358;5.628;2023-11-21T02:15:59;27.33;26.67;18.67
46302;PMS7003;32029;51.358;5.628;2023-11-21T02:18:26;27.00;23.00;16.00
46302;PMS7003;32029;51.358;5.628;2023-11-21T02:20:56;29.00;29.00;21.67
46302;PMS7003;32029;51.358;5.628;2023-11-21T02:23:23;29.00;24.00;18.00
46302;PMS7003;32029;51.358;5.628;2023-11-21T02:25:57;24.57;23.00;16.57
46302;PMS7003;32029;51.358;5.628;2023-11-21T02:28:26;29.00;29.00;18.00
46302;PMS7003;32029;51.358;5.628;2023-11-21T02:30:53;27.00;25.00;18.67
46302;PMS7003;32029;51.358;5.628;2023-11-21T02:33:25;28.50;23.50;14.00
46302;PMS7003;32029;51.358;5.628;2023-11-21T02:35:53;24.67;20.33;17.67
46302;PMS7003;32029;51.358;5.628;2023-11-21T02:38:21;29.67;29.67;20.33
46302;PMS7003;32029;51.358;5.628;2023-11-21T02:40:49;34.50;30.50;20.50
46302;PMS7003;32029;51.358;5.628;2023-11-21T02:43:16;35.00;33.67;22.00
46302;PMS7003;32029;51.358;5.628;2023-11-21T02:45:43;30.33;30.33;23.00
46302;PMS7003;32029;51.358;5.628;2023-11-21T02:48:11;43.75;38.25;23.00
46302;PMS7003;32029;51.358;5.628;2023-11-21T02:50:38;34.67;31.00;22.33
46302;PMS7003;32029;51.358;5.628;2023-11-21T02:53:05;46.00;38.67;24.00
46302;PMS7003;32029;51.358;5.628;2023-11-21T02:55:33;42.25;38.50;23.75
46302;PMS7003;32029;51.358;5.628;2023-11-21T02:58:03;43.67;39.00;23.67
46302;PMS7003;32029;51.358;5.628;2023-11-21T03:00:33;45.25;39.50;24.00
46302;PMS7003;32029;51.358;5.628;2023-11-21T03:03:01;41.00;36.00;19.00
46302;PMS7003;32029;51.358;5.628;2023-11-21T03:05:28;43.00;37.67;24.00
46302;PMS7003;32029;51.358;5.628;2023-11-21T03:07:55;47.67;37.00;23.33
46302;PMS7003;32029;51.358;5.628;2023-11-21T03:10:23;43.75;39.50;25.25
46302;PMS7003;32029;51.358;5.628;2023-11-21T03:12:51;44.25;36.50;22.75
46302;PMS7003;32029;51.358;5.628;2023-11-21T03:15:19;43.00;40.00;24.00
46302;PMS7003;32029;51.358;5.628;2023-11-21T03:17:47;44.33;37.33;22.00
46302;PMS7003;32029;51.358;5.628;2023-11-21T03:20:15;29.67;26.67;18.33
46302;PMS7003;32029;51.358;5.628;2023-11-21T03:22:43;40.00;33.33;18.00
46302;PMS7003;32029;51.358;5.628;2023-11-21T03:25:12;37.33;36.00;22.67
46302;PMS7003;32029;51.358;5.628;2023-11-21T03:27:40;38.25;35.25;24.00
46302;PMS7003;32029;51.358;5.628;2023-11-21T03:30:08;34.75;32.75;20.00
46302;PMS7003;32029;51.358;5.628;2023-11-21T03:32:36;32.67;29.67;17.33
46302;PMS7003;32029;51.358;5.628;2023-11-21T03:35:03;39.00;33.33;18.00
46302;PMS7003;32029;51.358;5.628;2023-11-21T03:37:33;28.50;27.75;17.00
46302;PMS7003;32029;51.358;5.628;2023-11-21T03:40:01;34.67;30.67;19.00
46302;PMS7003;32029;51.358;5.628;2023-11-21T03:42:31;39.00;29.33;17.00
46302;PMS7003;32029;51.358;5.628;2023-11-21T03:44:59;30.67;30.67;20.00
46302;PMS7003;32029;51.358;5.628;2023-11-21T03:47:26;35.00;32.33;22.00
46302;PMS7003;32029;51.358;5.628;2023-11-21T03:49:55;34.67;32.33;19.33
46302;PMS7003;32029;51.358;5.628;2023-11-21T03:52:23;39.25;31.50;19.25
46302;PMS7003;32029;51.358;5.628;2023-11-21T03:54:50;31.33;29.33;18.00
46302;PMS7003;32029;51.358;5.628;2023-11-21T03:57:18;40.67;36.33;19.67
46302;PMS7003;32029;51.358;5.628;2023-11-21T03:59:45;32.33;27.67;18.33
46302;PMS7003;32029;51.358;5.628;2023-11-21T04:02:13;33.33;28.33;18.33
46302;PMS7003;32029;51.358;5.628;2023-11-21T04:04:41;30.00;27.33;19.00
46302;PMS7003;32029;51.358;5.628;2023-11-21T04:07:08;30.67;28.33;18.00
46302;PMS7003;32029;51.358;5.628;2023-11-21T04:09:36;30.33;30.00;18.33
46302;PMS7003;32029;51.358;5.628;2023-11-21T04:12:03;30.00;24.50;13.00
46302;PMS7003;32029;51.358;5.628;2023-11-21T04:14:30;27.00;24.67;16.67
46302;PMS7003;32029;51.358;5.628;2023-11-21T04:16:58;29.00;25.33;15.67
46302;PMS7003;32029;51.358;5.628;2023-11-21T04:19:25;33.00;31.33;18.00
46302;PMS7003;32029;51.358;5.628;2023-11-21T04:21:53;27.00;27.00;18.33
46302;PMS7003;32029;51.358;5.628;2023-11-21T04:24:20;31.00;31.00;19.00
46302;PMS7003;32029;51.358;5.628;2023-11-21T04:26:48;28.67;25.67;14.00
46302;PMS7003;32029;51.358;5.628;2023-11-21T04:29:16;30.00;27.00;18.00
46302;PMS7003;32029;51.358;5.628;2023-11-21T04:31:43;29.67;26.67;18.00
46302;PMS7003;32029;51.358;5.628;2023-11-21T04:34:11;25.67;25.67;17.67
46302;PMS7003;32029;51.358;5.628;2023-11-21T04:36:38;31.00;29.33;18.00
46302;PMS7003;32029;51.358;5.628;2023-11-21T04:39:06;31.00;30.00;17.00
46302;PMS7003;32029;51.358;5.628;2023-11-21T04:41:34;33.67;30.33;18.67
46302;PMS7003;32029;51.358;5.628;2023-11-21T04:44:03;32.25;26.50;17.25
46302;PMS7003;32029;51.358;5.628;2023-11-21T04:46:31;27.67;24.33;14.33
46302;PMS7003;32029;51.358;5.628;2023-11-21T04:48:59;29.67;26.33;18.33
46302;PMS7003;32029;51.358;5.628;2023-11-21T04:51:26;35.33;29.67;19.67
46302;PMS7003;32029;51.358;5.628;2023-11-21T04:53:53;31.00;28.33;18.00
46302;PMS7003;32029;51.358;5.628;2023-11-21T04:56:21;32.00;25.67;16.67
46302;PMS7003;32029;51.358;5.628;2023-11-21T04:58:49;29.25;29.25;17.50
46302;PMS7003;32029;51.358;5.628;2023-11-21T05:01:16;30.67;26.67;18.00
46302;PMS7003;32029;51.358;5.628;2023-11-21T05:03:44;32.67;29.33;16.33
46302;PMS7003;32029;51.358;5.628;2023-11-21T05:06:12;24.33;19.67;14.33
46302;PMS7003;32029;51.358;5.628;2023-11-21T05:08:39;22.33;22.33;13.33
46302;PMS7003;32029;51.358;5.628;2023-11-21T05:11:05;17.33;17.33;11.33
46302;PMS7003;32029;51.358;5.628;2023-11-21T05:13:34;21.00;19.67;11.00
46302;PMS7003;32029;51.358;5.628;2023-11-21T05:16:02;23.67;22.33;14.00
46302;PMS7003;32029;51.358;5.628;2023-11-21T05:18:30;23.50;19.50;14.00
46302;PMS7003;32029;51.358;5.628;2023-11-21T05:20:57;32.00;24.00;14.33
46302;PMS7003;32029;51.358;5.628;2023-11-21T05:23:24;19.67;18.00;13.00
46302;PMS7003;32029;51.358;5.628;2023-11-21T05:25:51;21.67;18.67;14.00
46302;PMS7003;32029;51.358;5.628;2023-11-21T05:28:19;26.67;22.33;15.00
46302;PMS7003;32029;51.358;5.628;2023-11-21T05:30:47;26.00;26.00;14.67
46302;PMS7003;32029;51.358;5.628;2023-11-21T05:33:15;23.67;20.67;11.33
46302;PMS7003;32029;51.358;5.628;2023-11-21T05:35:43;24.33;24.33;18.00
46302;PMS7003;32029;51.358;5.628;2023-11-21T05:38:12;18.17;11.67;3.00
46302;PMS7003;32029;51.358;5.628;2023-11-21T05:40:39;31.67;24.00;14.67
46302;PMS7003;32029;51.358;5.628;2023-11-21T05:43:07;25.00;22.00;14.33
46302;PMS7003;32029;51.358;5.628;2023-11-21T05:45:33;22.67;20.00;15.67
46302;PMS7003;32029;51.358;5.628;2023-11-21T05:48:02;25.00;22.67;15.00
46302;PMS7003;32029;51.358;5.628;2023-11-21T05:50:30;23.67;20.00;13.00
46302;PMS7003;32029;51.358;5.628;2023-11-21T05:52:57;20.00;15.67;12.00
46302;PMS7003;32029;51.358;5.628;2023-11-21T05:55:26;26.50;24.00;14.50
46302;PMS7003;32029;51.358;5.628;2023-11-21T05:57:54;29.67;27.00;16.67
46302;PMS7003;32029;51.358;5.628;2023-11-21T06:00:22;23.67;23.67;14.67
46302;PMS7003;32029;51.358;5.628;2023-11-21T06:02:50;23.67;21.00;13.00
46302;PMS7003;32029;51.358;5.628;2023-11-21T06:05:20;25.67;23.67;14.33
46302;PMS7003;32029;51.358;5.628;2023-11-21T06:07:50;24.50;24.00;15.50
46302;PMS7003;32029;51.358;5.628;2023-11-21T06:10:21;23.00;23.00;13.33
46302;PMS7003;32029;51.358;5.628;2023-11-21T06:12:51;24.00;22.33;13.00
46302;PMS7003;32029;51.358;5.628;2023-11-21T06:15:19;24.33;24.00;16.33
46302;PMS7003;32029;51.358;5.628;2023-11-21T06:17:48;28.00;25.00;13.33
46302;PMS7003;32029;51.358;5.628;2023-11-21T06:20:20;23.67;22.00;14.00
46302;PMS7003;32029;51.358;5.628;2023-11-21T06:22:49;24.33;22.33;14.00
46302;PMS7003;32029;51.358;5.628;2023-11-21T06:25:19;25.33;24.67;13.67
46302;PMS7003;32029;51.358;5.628;2023-11-21T06:27:47;30.00;30.00;18.00
46302;PMS7003;32029;51.358;5.628;2023-11-21T06:30:14;24.00;22.50;13.50
46302;PMS7003;32029;51.358;5.628;2023-11-21T06:32:43;30.67;24.00;15.33
46302;PMS7003;32029;51.358;5.628;2023-11-21T06:35:13;30.67;28.67;15.33
46302;PMS7003;32029;51.358;5.628;2023-11-21T06:37:41;26.00;25.67;17.00
46302;PMS7003;32029;51.358;5.628;2023-11-21T06:40:08;30.67;28.67;15.67
46302;PMS7003;32029;51.358;5.628;2023-11-21T06:42:38;30.00;27.33;15.00
46302;PMS7003;32029;51.358;5.628;2023-11-21T06:45:05;28.50;25.00;16.50
46302;PMS7003;32029;51.358;5.628;2023-11-21T06:47:32;35.67;27.67;17.67
46302;PMS7003;32029;51.358;5.628;2023-11-21T06:50:00;28.67;24.33;15.00
46302;PMS7003;32029;51.358;5.628;2023-11-21T06:52:28;31.00;29.67;18.00
46302;PMS7003;32029;51.358;5.628;2023-11-21T06:54:56;31.67;25.67;17.00
46302;PMS7003;32029;51.358;5.628;2023-11-21T06:57:23;34.67;33.33;18.00
46302;PMS7003;32029;51.358;5.628;2023-11-21T06:59:51;37.25;28.00;14.75
46302;PMS7003;32029;51.358;5.628;2023-11-21T07:02:19;38.25;34.50;18.75
46302;PMS7003;32029;51.358;5.628;2023-11-21T07:04:46;37.00;30.33;15.00
46302;PMS7003;32029;51.358;5.628;2023-11-21T07:07:14;39.75;34.25;18.75
46302;PMS7003;32029;51.358;5.628;2023-11-21T07:09:44;34.00;33.33;19.33
46302;PMS7003;32029;51.358;5.628;2023-11-21T07:12:13;39.33;32.00;16.00
46302;PMS7003;32029;51.358;5.628;2023-11-21T07:14:40;31.67;29.67;15.00
46302;PMS7003;32029;51.358;5.628;2023-11-21T07:17:11;34.00;30.33;18.00
46302;PMS7003;32029;51.358;5.628;2023-11-21T07:19:39;36.67;32.00;18.67
46302;PMS7003;32029;51.358;5.628;2023-11-21T07:22:07;41.75;33.00;19.00
46302;PMS7003;32029;51.358;5.628;2023-11-21T07:24:35;40.00;37.00;21.50
46302;PMS7003;32029;51.358;5.628;2023-11-21T07:27:04;35.67;29.67;16.33
46302;PMS7003;32029;51.358;5.628;2023-11-21T07:29:31;40.67;35.00;19.33
46302;PMS7003;32029;51.358;5.628;2023-11-21T07:31:58;36.00;31.33;20.00
46302;PMS7003;32029;51.358;5.628;2023-11-21T07:34:25;41.25;29.75;18.50
46302;PMS7003;32029;51.358;5.628;2023-11-21T07:36:53;41.25;35.25;18.00
46302;PMS7003;32029;51.358;5.628;2023-11-21T07:39:20;27.00;27.00;14.67
46302;PMS7003;32029;51.358;5.628;2023-11-21T07:41:47;34.33;33.33;23.33
46302;PMS7003;32029;51.358;5.628;2023-11-21T07:44:18;40.75;31.75;15.50
46302;PMS7003;32029;51.358;5.628;2023-11-21T07:46:47;36.33;32.33;16.33
46302;PMS7003;32029;51.358;5.628;2023-11-21T07:49:17;28.33;26.00;14.33
46302;PMS7003;32029;51.358;5.628;2023-11-21T07:51:46;37.50;32.00;20.50
46302;PMS7003;32029;51.358;5.628;2023-11-21T07:54:14;41.67;34.67;17.67
46302;PMS7003;32029;51.358;5.628;2023-11-21T07:56:42;35.33;29.67;14.67
46302;PMS7003;32029;51.358;5.628;2023-11-21T07:59:10;45.50;35.25;19.50
46302;PMS7003;32029;51.358;5.628;2023-11-21T08:01:38;40.67;31.33;18.00
46302;PMS7003;32029;51.358;5.628;2023-11-21T08:04:06;34.00;31.33;19.33
46302;PMS7003;32029;51.358;5.628;2023-11-21T08:06:35;38.25;30.50;16.50
46302;PMS7003;32029;51.358;5.628;2023-11-21T08:09:02;30.00;24.67;14.00
46302;PMS7003;32029;51.358;5.628;2023-11-21T08:11:30;34.67;31.00;18.00
46302;PMS7003;32029;51.358;5.628;2023-11-21T08:13:59;39.33;34.67;18.67
46302;PMS7003;32029;51.358;5.628;2023-11-21T08:16:28;46.00;37.67;20.67
46302;PMS7003;32029;51.358;5.628;2023-11-21T08:18:54;27.33;25.00;19.33
46302;PMS7003;32029;51.358;5.628;2023-11-21T08:21:22;36.75;33.25;18.25
46302;PMS7003;32029;51.358;5.628;2023-11-21T08:23:55;31.00;31.00;19.00
46302;PMS7003;32029;51.358;5.628;2023-11-21T08:26:23;38.25;32.50;17.00
46302;PMS7003;32029;51.358;5.628;2023-11-21T08:28:50;36.67;30.00;14.33
46302;PMS7003;32029;51.358;5.628;2023-11-21T08:31:23;40.75;34.50;19.00
46302;PMS7003;32029;51.358;5.628;2023-11-21T08:33:52;41.67;32.67;15.00
46302;PMS7003;32029;51.358;5.628;2023-11-21T08:36:22;38.33;34.00;17.00
46302;PMS7003;32029;51.358;5.628;2023-11-21T08:38:52;38.25;34.25;16.50
46302;PMS7003;32029;51.358;5.628;2023-11-21T08:41:20;37.00;32.33;19.00
46302;PMS7003;32029;51.358;5.628;2023-11-21T08:43:50;38.00;33.00;17.33
46302;PMS7003;32029;51.358;5.628;2023-11-21T08:46:18;41.00;35.75;18.50
46302;PMS7003;32029;51.358;5.628;2023-11-21T08:48:46;40.25;35.75;20.00
46302;PMS7003;32029;51.358;5.628;2023-11-21T08:51:14;36.33;33.00;18.33
46302;PMS7003;32029;51.358;5.628;2023-11-21T08:53:41;41.75;35.25;19.50
46302;PMS7003;32029;51.358;5.628;2023-11-21T08:56:12;35.33;33.00;18.67
46302;PMS7003;32029;51.358;5.628;2023-11-21T08:58:43;33.75;30.75;16.75
46302;PMS7003;32029;51.358;5.628;2023-11-21T09:01:10;36.00;32.67;19.00
46302;PMS7003;32029;51.358;5.628;2023-11-21T09:03:38;26.33;24.00;15.67
46302;PMS7003;32029;51.358;5.628;2023-11-21T09:06:06;41.00;34.50;20.00
46302;PMS7003;32029;51.358;5.628;2023-11-21T09:08:36;38.00;31.00;17.25
46302;PMS7003;32029;51.358;5.628;2023-11-21T09:11:04;33.67;30.00;19.33
46302;PMS7003;32029;51.358;5.628;2023-11-21T09:13:32;33.75;30.75;18.00
46302;PMS7003;32029;51.358;5.628;2023-11-21T09:16:00;39.75;32.75;18.25
46302;PMS7003;32029;51.358;5.628;2023-11-21T09:18:27;30.67;30.33;18.00
46302;PMS7003;32029;51.358;5.628;2023-11-21T09:20:55;40.25;33.00;19.00
46302;PMS7003;32029;51.358;5.628;2023-11-21T09:23:23;45.50;34.25;18.00
46302;PMS7003;32029;51.358;5.628;2023-11-21T09:25:50;36.00;29.33;17.33
46302;PMS7003;32029;51.358;5.628;2023-11-21T09:28:19;40.25;33.00;19.75
46302;PMS7003;32029;51.358;5.628;2023-11-21T09:30:47;37.00;29.75;17.25
46302;PMS7003;32029;51.358;5.628;2023-11-21T09:33:15;42.33;35.67;19.67
46302;PMS7003;32029;51.358;5.628;2023-11-21T09:35:43;52.00;36.75;22.75
46302;PMS7003;32029;51.358;5.628;2023-11-21T09:38:10;7.00;2.33;0.00
46302;PMS7003;32029;51.358;5.628;2023-11-21T09:40:38;42.25;33.50;19.75
46302;PMS7003;32029;51.358;5.628;2023-11-21T09:43:09;44.67;32.67;21.00
46302;PMS7003;32029;51.358;5.628;2023-11-21T09:45:46;39.25;32.75;19.75
46302;PMS7003;32029;51.358;5.628;2023-11-21T09:48:15;53.25;36.00;21.50
46302;PMS7003;32029;51.358;5.628;2023-11-21T09:50:44;34.67;33.00;17.67
46302;PMS7003;32029;51.358;5.628;2023-11-21T09:53:17;42.00;35.00;21.67
46302;PMS7003;32029;51.358;5.628;2023-11-21T09:55:45;37.67;32.67;22.33
46302;PMS7003;32029;51.358;5.628;2023-11-21T09:58:13;37.33;33.67;21.00
46302;PMS7003;32029;51.358;5.628;2023-11-21T10:00:45;31.67;31.67;17.00
46302;PMS7003;32029;51.358;5.628;2023-11-21T10:03:14;40.33;34.00;22.33
46302;PMS7003;32029;51.358;5.628;2023-11-21T10:05:44;11.67;8.00;0.00
46302;PMS7003;32029;51.358;5.628;2023-11-21T10:08:14;39.50;35.75;22.75
46302;PMS7003;32029;51.358;5.628;2023-11-21T10:10:44;40.67;32.67;20.67
46302;PMS7003;32029;51.358;5.628;2023-11-21T10:13:13;40.75;35.50;18.75
46302;PMS7003;32029;51.358;5.628;2023-11-21T10:15:43;34.33;30.00;16.00
46302;PMS7003;32029;51.358;5.628;2023-11-21T10:18:15;46.00;35.33;22.33
46302;PMS7003;32029;51.358;5.628;2023-11-21T10:20:44;43.33;33.67;19.00
46302;PMS7003;32029;51.358;5.628;2023-11-21T10:23:19;39.00;34.00;21.50
46302;PMS7003;32029;51.358;5.628;2023-11-21T10:25:47;45.00;34.00;20.00
46302;PMS7003;32029;51.358;5.628;2023-11-21T10:28:17;43.00;33.00;19.50
46302;PMS7003;32029;51.358;5.628;2023-11-21T10:30:43;40.67;34.00;21.67
46302;PMS7003;32029;51.358;5.628;2023-11-21T10:33:11;51.33;39.00;24.00
46302;PMS7003;32029;51.358;5.628;2023-11-21T10:35:39;47.00;36.00;21.00
46302;PMS7003;32029;51.358;5.628;2023-11-21T10:38:13;41.00;34.00;20.00
46302;PMS7003;32029;51.358;5.628;2023-11-21T10:40:40;35.33;31.33;20.33
46302;PMS7003;32029;51.358;5.628;2023-11-21T10:43:08;44.67;38.00;23.33
46302;PMS7003;32029;51.358;5.628;2023-11-21T10:45:38;38.33;28.33;17.67
46302;PMS7003;32029;51.358;5.628;2023-11-21T10:48:06;39.67;36.00;21.00
46302;PMS7003;32029;51.358;5.628;2023-11-21T10:50:42;50.33;38.00;24.67
46302;PMS7003;32029;51.358;5.628;2023-11-21T10:53:13;35.25;33.00;21.25
46302;PMS7003;32029;51.358;5.628;2023-11-21T10:55:42;41.75;32.00;20.00
46302;PMS7003;32029;51.358;5.628;2023-11-21T10:58:12;45.50;36.50;22.00
46302;PMS7003;32029;51.358;5.628;2023-11-21T11:00:41;39.50;34.00;20.50
46302;PMS7003;32029;51.358;5.628;2023-11-21T11:03:10;42.50;34.25;22.50
46302;PMS7003;32029;51.358;5.628;2023-11-21T11:05:41;42.00;36.33;23.33
46302;PMS7003;32029;51.358;5.628;2023-11-21T11:08:18;45.00;36.75;24.25
46302;PMS7003;32029;51.358;5.628;2023-11-21T11:10:46;41.33;32.67;19.67
46302;PMS7003;32029;51.358;5.628;2023-11-21T11:13:17;43.33;36.00;22.67
46302;PMS7003;32029;51.358;5.628;2023-11-21T11:15:48;41.00;32.25;21.25
46302;PMS7003;32029;51.358;5.628;2023-11-21T11:18:15;45.33;36.00;22.00
46302;PMS7003;32029;51.358;5.628;2023-11-21T11:20:44;41.67;36.00;22.67
46302;PMS7003;32029;51.358;5.628;2023-11-21T11:26:20;37.00;31.33;16.00
46302;PMS7003;32029;51.358;5.628;2023-11-21T11:29:03;44.00;37.50;21.50
46302;PMS7003;32029;51.358;5.628;2023-11-21T11:31:45;38.50;34.00;20.00
46302;PMS7003;32029;51.358;5.628;2023-11-21T11:34:47;44.33;34.00;21.67
46302;PMS7003;32029;51.358;5.628;2023-11-21T11:37:20;45.00;35.00;21.00
46302;PMS7003;32029;51.358;5.628;2023-11-21T11:39:49;40.00;30.67;19.00
46302;PMS7003;32029;51.358;5.628;2023-11-21T11:42:18;39.33;33.33;21.33
46302;PMS7003;32029;51.358;5.628;2023-11-21T11:44:47;36.33;30.67;18.67
46302;PMS7003;32029;51.358;5.628;2023-11-21T11:50:00;35.50;34.25;19.50
46302;PMS7003;32029;51.358;5.628;2023-11-21T11:55:10;36.00;32.50;19.00
46302;PMS7003;32029;51.358;5.628;2023-11-21T11:57:40;31.67;28.00;19.00
46302;PMS7003;32029;51.358;5.628;2023-11-21T12:02:39;30.67;29.67;13.67
46302;PMS7003;32029;51.358;5.628;2023-11-21T12:05:09;31.00;27.67;17.00
46302;PMS7003;32029;51.358;5.628;2023-11-21T12:07:54;30.50;27.50;15.75
46302;PMS7003;32029;51.358;5.628;2023-11-21T12:10:24;32.67;27.67;18.33
46302;PMS7003;32029;51.358;5.628;2023-11-21T12:12:54;35.00;30.33;20.00
46302;PMS7003;32029;51.358;5.628;2023-11-21T12:15:24;32.50;25.00;16.00
46302;PMS7003;32029;51.358;5.628;2023-11-21T12:17:52;35.75;30.75;18.25
46302;PMS7003;32029;51.358;5.628;2023-11-21T12:20:24;42.50;32.75;18.00
46302;PMS7003;32029;51.358;5.628;2023-11-21T12:22:53;24.00;22.00;16.33
46302;PMS7003;32029;51.358;5.628;2023-11-21T12:25:23;30.33;27.33;17.67
46302;PMS7003;32029;51.358;5.628;2023-11-21T12:27:56;30.67;28.33;18.00
46302;PMS7003;32029;51.358;5.628;2023-11-21T12:30:24;25.67;21.00;15.00
46302;PMS7003;32029;51.358;5.628;2023-11-21T12:32:55;31.67;28.00;16.67
46302;PMS7003;32029;51.358;5.628;2023-11-21T12:35:29;31.00;26.33;16.00
46302;PMS7003;32029;51.358;5.628;2023-11-21T12:38:01;26.00;19.33;15.33
46302;PMS7003;32029;51.358;5.628;2023-11-21T12:40:29;22.33;20.33;14.00
46302;PMS7003;32029;51.358;5.628;2023-11-21T12:42:57;33.25;24.75;16.50
46302;PMS7003;32029;51.358;5.628;2023-11-21T12:45:27;22.67;21.00;12.33
46302;PMS7003;32029;51.358;5.628;2023-11-21T12:47:56;27.00;21.67;14.00
46302;PMS7003;32029;51.358;5.628;2023-11-21T12:50:27;30.00;24.00;15.00
46302;PMS7003;32029;51.358;5.628;2023-11-21T12:53:05;34.67;24.00;14.00
46302;PMS7003;32029;51.358;5.628;2023-11-21T12:55:39;31.00;24.00;14.33
46302;PMS7003;32029;51.358;5.628;2023-11-21T12:58:08;32.67;28.67;16.67
46302;PMS7003;32029;51.358;5.628;2023-11-21T13:00:38;26.75;23.75;16.00
46302;PMS7003;32029;51.358;5.628;2023-11-21T13:03:10;34.00;29.00;18.33
46302;PMS7003;32029;51.358;5.628;2023-11-21T13:05:39;23.67;23.00;12.33
46302;PMS7003;32029;51.358;5.628;2023-11-21T13:08:11;28.33;26.00;17.67
46302;PMS7003;32029;51.358;5.628;2023-11-21T13:10:40;30.00;28.25;19.00
46302;PMS7003;32029;51.358;5.628;2023-11-21T13:13:12;35.33;30.33;20.00
46302;PMS7003;32029;51.358;5.628;2023-11-21T13:15:49;35.67;29.67;19.33
46302;PMS7003;32029;51.358;5.628;2023-11-21T13:18:24;28.33;27.33;14.67
46302;PMS7003;32029;51.358;5.628;2023-11-21T13:20:53;31.00;27.00;18.00
46302;PMS7003;32029;51.358;5.628;2023-11-21T13:23:25;34.75;31.00;19.50
46302;PMS7003;32029;51.358;5.628;2023-11-21T13:25:53;33.75;27.75;20.00
46302;PMS7003;32029;51.358;5.628;2023-11-21T13:28:21;34.33;31.67;18.67
46302;PMS7003;32029;51.358;5.628;2023-11-21T13:30:51;38.50;31.25;21.00
46302;PMS7003;32029;51.358;5.628;2023-11-21T13:33:22;30.67;28.33;18.33
46302;PMS7003;32029;51.358;5.628;2023-11-21T13:35:55;30.00;27.33;17.33
46302;PMS7003;32029;51.358;5.628;2023-11-21T13:38:23;30.00;29.00;20.00
46302;PMS7003;32029;51.358;5.628;2023-11-21T13:40:51;35.33;29.33;18.67
46302;PMS7003;32029;51.358;5.628;2023-11-21T13:43:21;33.75;30.50;21.00
46302;PMS7003;32029;51.358;5.628;2023-11-21T13:45:53;34.00;32.00;20.67
46302;PMS7003;32029;51.358;5.628;2023-11-21T13:48:39;36.67;32.00;21.00
46302;PMS7003;32029;51.358;5.628;2023-11-21T13:51:10;30.00;26.75;18.75
46302;PMS7003;32029;51.358;5.628;2023-11-21T13:53:47;34.00;29.67;18.00
46302;PMS7003;32029;51.358;5.628;2023-11-21T13:56:17;34.00;33.00;19.00
46302;PMS7003;32029;51.358;5.628;2023-11-21T13:58:54;34.00;31.00;18.00
46302;PMS7003;32029;51.358;5.628;2023-11-21T14:01:24;28.75;26.00;17.00
46302;PMS7003;32029;51.358;5.628;2023-11-21T14:03:56;31.00;24.67;16.67
46302;PMS7003;32029;51.358;5.628;2023-11-21T14:06:29;29.75;26.75;17.00